Time;durP1;ratioP1;P1;durP2;ratioP2;P2;SDS_P1;SDS_P2;PMS_P1;PMS_P2;Temp;Humidity;BMP_temperature;BMP_pressure;BME280_temperature;BME280_humidity;BME280_pressure;Samples;Min_cycle;Max_cycle;Signal;HPM_P1;HPM_P2
2023/07/27 00:01:28;;;;;;;4.85;2.53;;;10.70;99.90;;;;;;4976170;28;20062;-79
2023/07/27 00:03:54;;;;;;;2.17;1.98;;;10.60;99.90;;;;;;4958642;28;20464;-78
2023/07/27 00:06:20;;;;;;;5.22;1.60;;;10.60;99.90;;;;;;4975831;28;20038;-79
2023/07/27 00:08:46;;;;;;;1.52;1.42;;;10.60;99.90;;;;;;4977175;28;20027;-79
2023/07/27 00:11:12;;;;;;;0.80;0.80;;;10.50;99.90;;;;;;4977102;28;20109;-79
2023/07/27 00:13:37;;;;;;;1.65;1.55;;;10.40;99.90;;;;;;4960314;28;20384;-79
2023/07/27 00:16:03;;;;;;;2.67;1.77;;;10.40;99.90;;;;;;4959848;28;20023;-78
2023/07/27 00:18:29;;;;;;;2.03;1.23;;;10.30;99.90;;;;;;4960899;28;20229;-79
2023/07/27 00:20:54;;;;;;;1.73;1.63;;;10.40;99.90;;;;;;4958675;28;20134;-79
2023/07/27 00:23:20;;;;;;;2.22;1.50;;;10.40;99.90;;;;;;4959199;28;20035;-79
2023/07/27 00:25:46;;;;;;;2.60;1.83;;;10.40;99.90;;;;;;4959093;28;20475;-78
2023/07/27 00:28:11;;;;;;;2.35;1.42;;;10.40;99.90;;;;;;4958105;28;20502;-79
2023/07/27 00:30:37;;;;;;;7.95;1.58;;;10.40;99.90;;;;;;4958106;28;20031;-79
2023/07/27 00:33:02;;;;;;;5.68;1.70;;;10.40;99.90;;;;;;4958309;28;20252;-79
2023/07/27 00:35:28;;;;;;;1.27;1.15;;;10.40;99.90;;;;;;4958317;28;20038;-79
2023/07/27 00:37:54;;;;;;;5.07;2.03;;;10.30;99.90;;;;;;4976722;28;20115;-79
2023/07/27 00:40:19;;;;;;;3.53;1.70;;;10.30;99.90;;;;;;4975656;28;20022;-79
2023/07/27 00:42:45;;;;;;;1.85;1.50;;;10.30;99.90;;;;;;4958452;28;20050;-79
2023/07/27 00:45:10;;;;;;;2.28;1.60;;;10.40;99.90;;;;;;4958731;28;20082;-79
2023/07/27 00:47:36;;;;;;;1.83;1.73;;;10.40;99.90;;;;;;4942266;28;20035;-78
2023/07/27 00:50:02;;;;;;;2.97;2.08;;;10.30;99.90;;;;;;4958605;28;20110;-78
2023/07/27 00:52:28;;;;;;;1.50;1.08;;;10.40;99.90;;;;;;4959186;28;20054;-79
2023/07/27 00:54:55;;;;;;;4.68;1.63;;;10.30;99.90;;;;;;4976742;28;20547;-79
2023/07/27 00:57:21;;;;;;;2.90;1.13;;;10.20;99.90;;;;;;4959349;28;20069;-79
2023/07/27 00:59:47;;;;;;;5.00;1.48;;;10.20;99.90;;;;;;4958981;28;20110;-78
2023/07/27 01:02:13;;;;;;;4.95;2.22;;;10.30;99.90;;;;;;4958597;28;20039;-79
2023/07/27 01:04:39;;;;;;;30.40;2.10;;;10.30;99.90;;;;;;4975859;28;20023;-78
2023/07/27 01:07:05;;;;;;;1.73;1.52;;;10.30;99.90;;;;;;4957558;28;20464;-78
2023/07/27 01:09:31;;;;;;;3.95;1.77;;;10.30;99.90;;;;;;4957400;28;20019;-78
2023/07/27 01:12:04;;;;;;;1.75;1.65;;;10.20;99.90;;;;;;4957201;28;20077;-79
2023/07/27 01:14:29;;;;;;;3.05;1.35;;;10.10;99.90;;;;;;4957484;28;20042;-79
2023/07/27 01:17:04;;;;;;;2.05;1.45;;;10.10;99.90;;;;;;4957549;28;20050;-79
2023/07/27 01:19:48;;;;;;;2.53;1.55;;;10.10;99.90;;;;;;4957531;28;20564;-78
2023/07/27 01:22:29;;;;;;;1.70;1.60;;;10.20;99.90;;;;;;4974012;28;20023;-80
2023/07/27 01:24:55;;;;;;;1.70;1.60;;;10.30;99.90;;;;;;4974680;28;20548;-79
2023/07/27 01:27:29;;;;;;;19.75;1.58;;;10.30;99.90;;;;;;4975223;28;20027;-79
2023/07/27 01:30:19;;;;;;;1.65;1.40;;;10.30;99.90;;;;;;4957885;28;20050;-79
2023/07/27 01:32:52;;;;;;;1.92;1.63;;;10.40;99.90;;;;;;4958260;28;20030;-79
2023/07/27 01:35:21;;;;;;;2.15;1.95;;;10.30;99.90;;;;;;4975675;28;20101;-79
2023/07/27 01:37:48;;;;;;;2.20;1.67;;;10.40;99.90;;;;;;4976621;28;20069;-79
2023/07/27 01:40:14;;;;;;;1.75;1.40;;;10.40;99.90;;;;;;4959246;28;20350;-79
2023/07/27 01:42:42;;;;;;;2.20;2.00;;;10.40;99.90;;;;;;4956713;28;20031;-79
2023/07/27 01:45:09;;;;;;;5.40;1.80;;;10.40;99.90;;;;;;4956455;28;20049;-79
2023/07/27 01:47:36;;;;;;;2.65;1.48;;;10.30;99.90;;;;;;4974423;28;20039;-79
2023/07/27 01:50:03;;;;;;;1.83;1.70;;;10.30;99.90;;;;;;4973675;28;20015;-78
2023/07/27 01:52:29;;;;;;;1.58;1.48;;;10.30;99.90;;;;;;4957350;28;20037;-79
2023/07/27 01:54:57;;;;;;;1.90;1.30;;;10.20;99.90;;;;;;4956827;28;20479;-79
2023/07/27 01:57:23;;;;;;;1.92;1.70;;;10.20;99.90;;;;;;4957637;28;20034;-78
2023/07/27 01:59:50;;;;;;;2.78;1.70;;;10.10;99.90;;;;;;4958776;28;20515;-79
2023/07/27 02:02:17;;;;;;;1.85;1.45;;;10.20;99.90;;;;;;4975419;28;20086;-79
2023/07/27 02:04:43;;;;;;;2.00;1.35;;;10.20;99.90;;;;;;4958098;28;20023;-79
2023/07/27 02:07:08;;;;;;;1.55;1.40;;;10.20;99.90;;;;;;4975337;28;20027;-78
2023/07/27 02:09:34;;;;;;;2.60;2.40;;;10.20;99.90;;;;;;4958000;28;20432;-78
2023/07/27 02:12:16;;;;;;;3.05;1.42;;;10.20;99.90;;;;;;4958153;28;20126;-78
2023/07/27 02:15:17;;;;;;;4.18;1.90;;;10.20;99.90;;;;;;4973983;28;20499;-78
2023/07/27 02:17:49;;;;;;;1.30;1.17;;;10.20;99.90;;;;;;4932116;28;20514;-79
2023/07/27 02:20:16;;;;;;;2.38;1.95;;;10.20;99.90;;;;;;4973429;28;20441;-78
2023/07/27 02:22:43;;;;;;;2.47;1.65;;;10.30;99.90;;;;;;4956647;28;20031;-80
2023/07/27 02:25:09;;;;;;;1.48;1.38;;;10.30;99.90;;;;;;4974694;28;20042;-78
2023/07/27 02:27:35;;;;;;;2.08;1.85;;;10.30;99.90;;;;;;4974543;28;20034;-78
2023/07/27 02:30:02;;;;;;;2.05;1.48;;;10.20;99.90;;;;;;4958157;28;20429;-78
2023/07/27 02:32:28;;;;;;;2.22;1.58;;;10.20;99.90;;;;;;4959364;28;20037;-79
2023/07/27 02:34:54;;;;;;;1.67;1.58;;;10.20;99.90;;;;;;4977436;28;20077;-79
2023/07/27 02:37:19;;;;;;;2.47;1.67;;;10.20;99.90;;;;;;4961492;28;20038;-78
2023/07/27 02:39:45;;;;;;;1.83;1.48;;;10.10;99.90;;;;;;4958398;28;20050;-78
2023/07/27 02:42:11;;;;;;;2.95;1.90;;;10.20;99.90;;;;;;4955674;28;20027;-78
2023/07/27 02:44:36;;;;;;;2.97;1.95;;;10.20;99.90;;;;;;4974080;28;20384;-78
2023/07/27 02:47:02;;;;;;;1.52;1.42;;;10.10;99.90;;;;;;4955984;28;20019;-79
2023/07/27 02:49:28;;;;;;;5.00;2.05;;;10.20;99.90;;;;;;4974026;28;20117;-78
2023/07/27 02:51:53;;;;;;;1.98;1.70;;;10.10;99.90;;;;;;4973443;28;20034;-78
2023/07/27 02:54:19;;;;;;;1.38;1.27;;;10.30;99.90;;;;;;4974312;28;20271;-79
2023/07/27 02:56:44;;;;;;;1.40;1.30;;;10.10;99.90;;;;;;4956788;28;20495;-79
2023/07/27 02:59:10;;;;;;;3.45;1.50;;;10.10;99.90;;;;;;4973927;28;20062;-79
2023/07/27 03:01:36;;;;;;;2.90;1.40;;;10.20;99.90;;;;;;4956513;28;20419;-78
2023/07/27 03:04:02;;;;;;;2.47;1.92;;;10.10;99.90;;;;;;4957216;28;20125;-78
2023/07/27 03:06:28;;;;;;;4.35;1.75;;;10.20;99.90;;;;;;4973954;28;20027;-79
2023/07/27 03:08:54;;;;;;;7.35;3.00;;;10.20;99.90;;;;;;4956906;28;20026;-79
2023/07/27 03:11:19;;;;;;;1.60;1.48;;;10.20;99.90;;;;;;4956375;28;20034;-79
2023/07/27 03:13:45;;;;;;;4.35;1.40;;;10.20;99.90;;;;;;4973706;28;20069;-78
2023/07/27 03:16:10;;;;;;;2.05;1.50;;;10.30;99.90;;;;;;4956774;28;20035;-78
2023/07/27 03:18:36;;;;;;;1.75;1.60;;;10.40;99.90;;;;;;4956567;28;20043;-78
2023/07/27 03:21:03;;;;;;;2.53;2.10;;;10.40;99.90;;;;;;4956654;28;20506;-79
2023/07/27 03:23:29;;;;;;;2.30;1.83;;;10.50;99.90;;;;;;4974281;28;20063;-79
2023/07/27 03:25:54;;;;;;;4.53;1.90;;;10.50;99.90;;;;;;4957712;28;20023;-79
2023/07/27 03:28:20;;;;;;;2.95;1.40;;;10.60;99.90;;;;;;4958253;28;20051;-78
2023/07/27 03:30:45;;;;;;;1.52;1.15;;;10.60;99.90;;;;;;4957838;28;20790;-78
2023/07/27 03:33:11;;;;;;;3.78;1.55;;;10.70;99.90;;;;;;4976302;28;20491;-79
2023/07/27 03:35:37;;;;;;;2.08;1.50;;;10.60;99.90;;;;;;4978937;28;20038;-80
2023/07/27 03:38:02;;;;;;;2.35;1.80;;;10.70;99.90;;;;;;4978262;28;20039;-79
2023/07/27 03:40:28;;;;;;;1.55;1.45;;;10.80;99.90;;;;;;4976923;28;20022;-78
2023/07/27 03:42:54;;;;;;;13.13;2.40;;;11.00;99.90;;;;;;4959329;28;20037;-79
2023/07/27 03:45:20;;;;;;;2.35;2.15;;;11.00;99.90;;;;;;4959399;28;20031;-78
2023/07/27 03:47:46;;;;;;;2.08;1.70;;;11.00;99.90;;;;;;4959592;28;20391;-78
2023/07/27 03:50:12;;;;;;;2.53;1.42;;;11.00;99.90;;;;;;4977823;28;20030;-79
2023/07/27 03:52:38;;;;;;;1.85;1.75;;;11.00;99.90;;;;;;4959483;28;20070;-78
2023/07/27 03:55:04;;;;;;;4.60;1.60;;;11.10;99.90;;;;;;4960039;28;20022;-78
2023/07/27 03:57:31;;;;;;;2.08;1.65;;;11.00;99.90;;;;;;4977350;28;20168;-79
2023/07/27 03:59:58;;;;;;;2.10;1.77;;;10.90;99.90;;;;;;4960690;28;20023;-79
2023/07/27 04:02:24;;;;;;;1.60;1.50;;;10.90;99.90;;;;;;4979252;28;20030;-79
2023/07/27 04:04:51;;;;;;;3.22;1.88;;;10.90;99.90;;;;;;4961968;28;20391;-78
2023/07/27 04:07:17;;;;;;;1.60;1.50;;;11.00;99.90;;;;;;4961860;28;20026;-79
2023/07/27 04:09:44;;;;;;;2.20;1.67;;;11.00;99.90;;;;;;4979738;28;20019;-79
2023/07/27 04:12:10;;;;;;;3.03;1.55;;;11.20;99.90;;;;;;4962241;28;20399;-79
2023/07/27 04:14:36;;;;;;;2.05;1.25;;;11.20;99.90;;;;;;4979924;28;20037;-79
2023/07/27 04:17:02;;;;;;;1.70;1.50;;;11.20;99.90;;;;;;4960965;28;20035;-79
2023/07/27 04:19:27;;;;;;;1.63;1.52;;;11.40;99.90;;;;;;4978877;28;20097;-79
2023/07/27 04:21:53;;;;;;;1.80;1.70;;;11.50;99.90;;;;;;4978575;28;20443;-79
2023/07/27 04:24:18;;;;;;;2.22;1.88;;;11.40;99.90;;;;;;4962932;28;20756;-79
2023/07/27 04:26:44;;;;;;;3.30;1.50;;;11.40;99.90;;;;;;4980237;28;20041;-78
2023/07/27 04:29:09;;;;;;;3.08;2.42;;;11.60;99.90;;;;;;4961951;28;20051;-79
2023/07/27 04:31:35;;;;;;;2.30;1.45;;;11.60;99.90;;;;;;4961712;28;20030;-79
2023/07/27 04:34:01;;;;;;;1.77;1.65;;;11.70;99.90;;;;;;4980016;28;20105;-78
2023/07/27 04:36:26;;;;;;;3.70;1.98;;;11.70;99.90;;;;;;4979822;28;20456;-79
2023/07/27 04:38:53;;;;;;;1.70;1.60;;;11.80;99.90;;;;;;4961525;28;20031;-79
2023/07/27 04:41:19;;;;;;;3.70;1.58;;;11.80;99.90;;;;;;4979433;28;20118;-79
2023/07/27 04:43:45;;;;;;;4.20;1.88;;;11.90;99.90;;;;;;4979588;28;20050;-79
2023/07/27 04:46:12;;;;;;;2.75;2.05;;;12.00;99.90;;;;;;4978118;28;20484;-79
2023/07/27 04:48:37;;;;;;;1.90;1.80;;;12.10;99.90;;;;;;4960710;28;20030;-79
2023/07/27 04:51:03;;;;;;;2.38;1.80;;;12.10;99.90;;;;;;4960865;28;20202;-78
2023/07/27 04:53:29;;;;;;;1.60;1.17;;;12.20;99.90;;;;;;4978122;28;20038;-79
2023/07/27 04:55:55;;;;;;;2.92;1.30;;;12.40;99.90;;;;;;4979293;28;20022;-80
2023/07/27 04:58:21;;;;;;;2.17;1.10;;;12.40;99.90;;;;;;4979917;28;20042;-79
2023/07/27 05:00:55;;;;;;;1.75;1.65;;;12.50;99.90;;;;;;4962952;28;20031;-79
2023/07/27 05:03:22;;;;;;;1.60;1.50;;;12.50;99.90;;;;;;4980340;28;20046;-78
2023/07/27 05:05:47;;;;;;;2.53;1.75;;;12.50;99.90;;;;;;4961217;28;20123;-79
2023/07/27 05:08:13;;;;;;;6.93;1.60;;;12.60;99.90;;;;;;4961169;28;20038;-78
2023/07/27 05:10:42;;;;;;;1.80;1.70;;;12.60;99.90;;;;;;4961557;28;20081;-79
2023/07/27 05:13:08;;;;;;;1.75;1.63;;;12.70;99.90;;;;;;4962163;28;20027;-79
2023/07/27 05:15:34;;;;;;;2.55;1.88;;;12.80;99.90;;;;;;4979367;28;20038;-79
2023/07/27 05:18:00;;;;;;;1.75;1.63;;;13.00;99.90;;;;;;4962391;28;20130;-79
2023/07/27 05:20:26;;;;;;;4.22;1.67;;;13.10;99.90;;;;;;4980033;28;20498;-78
2023/07/27 05:22:52;;;;;;;3.15;1.85;;;13.30;99.90;;;;;;4963375;28;20033;-79
2023/07/27 05:25:17;;;;;;;1.92;1.75;;;13.50;99.90;;;;;;4970800;28;20511;-79
2023/07/27 05:27:43;;;;;;;5.75;1.58;;;13.60;99.90;;;;;;4986706;28;20035;-79
2023/07/27 05:30:09;;;;;;;2.03;1.40;;;13.80;99.90;;;;;;4959441;28;20031;-79
2023/07/27 05:32:35;;;;;;;2.00;1.70;;;13.80;99.90;;;;;;4955495;28;20388;-79
2023/07/27 05:35:00;;;;;;;1.42;1.33;;;13.80;99.90;;;;;;4954924;28;20022;-79
2023/07/27 05:37:26;;;;;;;1.42;1.33;;;14.00;99.90;;;;;;4956238;28;20046;-78
2023/07/27 05:39:52;;;;;;;2.35;1.95;;;14.10;99.90;;;;;;4956199;28;20022;-81
2023/07/27 05:42:17;;;;;;;3.75;1.50;;;14.10;99.90;;;;;;4955108;28;20089;-80
2023/07/27 05:44:43;;;;;;;4.20;1.20;;;14.30;99.90;;;;;;4972299;28;20030;-79
2023/07/27 05:47:09;;;;;;;2.58;1.85;;;14.30;99.90;;;;;;4956198;28;20400;-80
2023/07/27 05:49:34;;;;;;;3.38;1.27;;;14.30;99.90;;;;;;4971914;28;20027;-79
2023/07/27 05:52:00;;;;;;;3.00;1.63;;;14.30;99.90;;;;;;4954474;28;20117;-80
2023/07/27 05:54:25;;;;;;;2.78;2.08;;;14.40;99.90;;;;;;4975808;28;20023;-79
2023/07/27 05:56:51;;;;;;;1.52;1.35;;;14.40;99.90;;;;;;4974641;28;20517;-79
2023/07/27 05:59:17;;;;;;;2.35;1.80;;;14.80;99.90;;;;;;4973351;28;20027;-79
2023/07/27 06:01:42;;;;;;;1.55;1.40;;;14.70;99.90;;;;;;4974416;28;20061;-80
2023/07/27 06:04:08;;;;;;;1.50;1.40;;;14.90;99.90;;;;;;4958427;28;20058;-79
2023/07/27 06:06:35;;;;;;;1.92;1.55;;;15.10;99.90;;;;;;4956321;28;20035;-80
2023/07/27 06:09:00;;;;;;;2.53;1.30;;;15.30;99.90;;;;;;4953763;28;20114;-80
2023/07/27 06:11:26;;;;;;;2.88;1.73;;;15.40;99.90;;;;;;4955437;28;20129;-79
2023/07/27 06:13:52;;;;;;;1.70;1.60;;;15.60;99.90;;;;;;4954562;28;20031;-79
2023/07/27 06:16:17;;;;;;;1.45;1.20;;;15.60;99.90;;;;;;4954988;28;20027;-81
2023/07/27 06:18:43;;;;;;;2.00;1.83;;;15.70;99.90;;;;;;4954038;28;20045;-81
2023/07/27 06:21:08;;;;;;;1.65;1.55;;;15.80;99.90;;;;;;4971357;28;20023;-81
2023/07/27 06:23:34;;;;;;;2.72;2.22;;;16.00;99.90;;;;;;4953633;28;20050;-80
2023/07/27 06:26:00;;;;;;;2.03;1.55;;;15.90;99.90;;;;;;4953467;28;20109;-80
2023/07/27 06:28:25;;;;;;;2.88;1.50;;;16.10;99.90;;;;;;4970784;28;20046;-80
2023/07/27 06:30:51;;;;;;;1.88;1.40;;;16.30;99.90;;;;;;4953654;28;20031;-80
2023/07/27 06:33:17;;;;;;;2.97;2.08;;;16.50;99.90;;;;;;4970928;28;20037;-80
2023/07/27 06:35:42;;;;;;;2.53;2.03;;;16.60;99.90;;;;;;4954122;28;20027;-80
2023/07/27 06:38:08;;;;;;;4.97;1.75;;;16.80;99.90;;;;;;4971909;28;20034;-79
2023/07/27 06:40:34;;;;;;;5.38;1.67;;;16.90;99.90;;;;;;4953894;28;20033;-79
2023/07/27 06:43:00;;;;;;;4.00;1.52;;;17.10;99.90;;;;;;4970591;28;20079;-81
2023/07/27 06:45:25;;;;;;;2.90;2.33;;;17.20;99.90;;;;;;4970744;28;20464;-81
2023/07/27 06:47:51;;;;;;;8.48;4.35;;;17.30;99.90;;;;;;4970773;28;20211;-80
2023/07/27 06:50:18;;;;;;;4.70;1.70;;;17.60;99.90;;;;;;4953570;28;20031;-80
2023/07/27 06:52:43;;;;;;;2.80;1.58;;;17.70;99.90;;;;;;4953422;28;20311;-80
2023/07/27 06:55:09;;;;;;;1.33;1.20;;;17.70;99.90;;;;;;4954056;28;20641;-79
2023/07/27 06:57:34;;;;;;;2.90;1.58;;;17.80;99.90;;;;;;4954322;28;20041;-80
2023/07/27 07:00:00;;;;;;;2.50;1.40;;;17.90;99.90;;;;;;4970953;28;20105;-80
2023/07/27 07:02:26;;;;;;;3.33;1.98;;;18.20;99.90;;;;;;4955793;28;20027;-79
2023/07/27 07:04:52;;;;;;;3.38;1.88;;;18.10;99.90;;;;;;4960098;28;20073;-80
2023/07/27 07:07:18;;;;;;;2.88;1.50;;;17.90;99.90;;;;;;4958385;28;20384;-79
2023/07/27 07:09:44;;;;;;;4.53;2.17;;;17.70;99.90;;;;;;4975991;28;20554;-79
2023/07/27 07:12:09;;;;;;;5.00;1.75;;;17.70;99.90;;;;;;4978986;28;20039;-79
2023/07/27 07:14:35;;;;;;;4.70;1.67;;;17.50;99.90;;;;;;4963498;28;20076;-79
2023/07/27 07:17:01;;;;;;;1.92;1.83;;;17.40;99.90;;;;;;4980118;28;20057;-79
2023/07/27 07:19:27;;;;;;;4.00;1.92;;;17.40;99.90;;;;;;4956802;28;20031;-80
2023/07/27 07:21:53;;;;;;;1.88;1.67;;;17.50;99.90;;;;;;4956426;28;20038;-79
2023/07/27 07:24:19;;;;;;;4.38;1.90;;;17.70;99.90;;;;;;4956733;28;20038;-80
2023/07/27 07:26:48;;;;;;;1.88;1.65;;;18.00;99.90;;;;;;4956526;28;20027;-80
2023/07/27 07:29:13;;;;;;;5.10;2.25;;;18.20;99.90;;;;;;4956359;28;20061;-80
2023/07/27 07:31:39;;;;;;;1.45;1.35;;;18.50;99.90;;;;;;4956535;28;20031;-81
2023/07/27 07:34:05;;;;;;;3.20;1.85;;;18.80;99.90;;;;;;4973992;28;20074;-80
2023/07/27 07:36:30;;;;;;;2.95;2.22;;;19.00;99.90;;;;;;4959386;28;20038;-79
2023/07/27 07:38:56;;;;;;;3.25;1.27;;;18.90;99.90;;;;;;4962384;28;20491;-81
2023/07/27 07:41:23;;;;;;;2.80;1.83;;;18.50;99.90;;;;;;4957743;28;20065;-80
2023/07/27 07:43:49;;;;;;;3.63;1.80;;;18.80;99.90;;;;;;4982016;28;20041;-79
2023/07/27 07:46:15;;;;;;;5.65;2.22;;;18.50;99.90;;;;;;4980798;28;20492;-79
2023/07/27 07:48:40;;;;;;;1.55;1.42;;;18.30;99.90;;;;;;4973840;28;20034;-80
2023/07/27 07:51:13;;;;;;;5.88;1.40;;;18.60;99.90;;;;;;4973582;28;20502;-81
2023/07/27 07:53:39;;;;;;;2.10;1.65;;;18.90;99.90;;;;;;4955720;28;20415;-79
2023/07/27 07:56:05;;;;;;;2.92;2.03;;;19.20;99.90;;;;;;4956695;28;20023;-80
2023/07/27 07:58:31;;;;;;;1.58;1.30;;;19.20;99.90;;;;;;4961771;28;20472;-80
2023/07/27 08:00:57;;;;;;;3.05;2.15;;;18.70;99.90;;;;;;4976238;28;20444;-79
2023/07/27 08:03:22;;;;;;;3.90;2.45;;;18.90;99.90;;;;;;4958291;28;20119;-80
2023/07/27 08:05:48;;;;;;;7.00;1.80;;;18.70;99.90;;;;;;4958165;28;20070;-79
2023/07/27 08:08:14;;;;;;;3.72;1.98;;;18.90;99.90;;;;;;4976019;28;20097;-81
2023/07/27 08:10:39;;;;;;;2.63;1.75;;;18.90;99.90;;;;;;4955774;28;20049;-80
2023/07/27 08:13:05;;;;;;;3.30;1.80;;;19.10;99.90;;;;;;4955823;28;20073;-79
2023/07/27 08:15:31;;;;;;;2.50;1.80;;;19.10;99.90;;;;;;4973524;28;20031;-80
2023/07/27 08:17:57;;;;;;;2.95;2.10;;;19.30;99.90;;;;;;4972745;28;20042;-79
2023/07/27 08:20:22;;;;;;;4.40;2.28;;;19.50;99.90;;;;;;4972277;28;20065;-79
2023/07/27 08:22:48;;;;;;;5.65;1.48;;;19.50;99.90;;;;;;4954973;28;20031;-80
2023/07/27 08:25:14;;;;;;;4.95;1.65;;;19.60;99.90;;;;;;4973100;28;20026;-80
2023/07/27 08:27:40;;;;;;;3.72;2.00;;;19.90;99.90;;;;;;4955419;28;20030;-80
2023/07/27 08:30:07;;;;;;;3.95;2.08;;;20.00;99.90;;;;;;4956147;28;20134;-80
2023/07/27 08:32:33;;;;;;;5.35;2.00;;;19.90;99.90;;;;;;4954820;28;20051;-79
2023/07/27 08:34:59;;;;;;;3.28;1.70;;;20.10;99.90;;;;;;4972498;28;20460;-80
2023/07/27 08:37:24;;;;;;;3.63;1.70;;;20.10;99.90;;;;;;4958984;28;20069;-79
2023/07/27 08:39:50;;;;;;;2.90;1.90;;;20.10;99.90;;;;;;4955297;28;20025;-79
2023/07/27 08:42:16;;;;;;;9.43;1.90;;;20.30;99.90;;;;;;4955053;28;20042;-79
2023/07/27 08:44:43;;;;;;;6.97;2.13;;;20.70;99.90;;;;;;4972605;28;20046;-80
2023/07/27 08:47:09;;;;;;;2.13;1.70;;;20.80;99.90;;;;;;4954920;28;20109;-81
2023/07/27 08:49:36;;;;;;;3.63;1.65;;;20.90;99.90;;;;;;4954435;28;20113;-80
2023/07/27 08:52:02;;;;;;;5.22;1.88;;;21.30;99.90;;;;;;4954802;28;20051;-79
2023/07/27 08:54:28;;;;;;;4.18;1.40;;;21.60;99.90;;;;;;4972227;28;20073;-80
2023/07/27 08:56:54;;;;;;;2.00;1.20;;;21.70;99.90;;;;;;4954748;28;20116;-80
2023/07/27 08:59:20;;;;;;;4.15;1.88;;;21.80;99.90;;;;;;4954908;28;20082;-80
2023/07/27 09:01:46;;;;;;;1.52;1.30;;;21.90;99.90;;;;;;4954883;28;20027;-79
2023/07/27 09:04:11;;;;;;;0.75;0.70;;;22.20;99.90;;;;;;4954434;28;20500;-80
2023/07/27 09:06:49;;;;;;;2.75;0.80;;;21.90;96.80;;;;;;4953902;28;20383;-80
2023/07/27 09:09:24;;;;;;;3.78;0.93;;;22.00;95.80;;;;;;4954783;28;20061;-80
2023/07/27 09:11:54;;;;;;;1.38;1.10;;;21.80;94.70;;;;;;4976345;28;20454;-79
2023/07/27 09:14:21;;;;;;;1.30;0.90;;;21.60;93.40;;;;;;4959621;28;20030;-79
2023/07/27 09:16:48;;;;;;;1.58;0.80;;;21.50;93.60;;;;;;4957017;28;20027;-79
2023/07/27 09:19:17;;;;;;;1.02;1.00;;;21.40;94.10;;;;;;4973854;28;20081;-80
2023/07/27 09:21:45;;;;;;;2.50;0.80;;;21.50;94.40;;;;;;4973426;28;20019;-80
2023/07/27 09:24:12;;;;;;;2.28;0.95;;;21.40;94.50;;;;;;4973289;28;20172;-79
2023/07/27 09:26:46;;;;;;;1.58;1.35;;;21.50;94.60;;;;;;4955094;28;20114;-79
2023/07/27 09:29:14;;;;;;;1.02;0.95;;;21.50;93.70;;;;;;4972631;28;20130;-80
2023/07/27 09:31:47;;;;;;;2.13;0.80;;;21.50;93.30;;;;;;4954771;28;20023;-80
2023/07/27 09:34:13;;;;;;;3.65;1.52;;;21.60;93.70;;;;;;4954538;28;20061;-79
2023/07/27 09:36:40;;;;;;;0.88;0.88;;;21.90;94.30;;;;;;4970934;28;20061;-79
2023/07/27 09:39:07;;;;;;;0.95;0.80;;;22.30;93.40;;;;;;4954333;28;20041;-80
2023/07/27 09:41:33;;;;;;;2.35;1.15;;;22.50;93.60;;;;;;4953936;28;20031;-80
2023/07/27 09:43:59;;;;;;;1.20;0.85;;;22.70;93.20;;;;;;4953682;28;20039;-81
2023/07/27 09:46:25;;;;;;;1.27;0.90;;;22.60;92.70;;;;;;4953798;28;20027;-80
2023/07/27 09:48:51;;;;;;;0.77;0.77;;;22.40;93.40;;;;;;4958105;28;20054;-79
2023/07/27 09:51:17;;;;;;;0.95;0.90;;;21.90;94.30;;;;;;4973060;28;20061;-80
2023/07/27 09:53:46;;;;;;;2.70;0.82;;;21.80;94.70;;;;;;4971539;28;20055;-80
2023/07/27 09:56:12;;;;;;;1.98;0.90;;;21.80;95.20;;;;;;4953950;28;20129;-79
2023/07/27 09:58:39;;;;;;;0.63;0.63;;;21.80;95.20;;;;;;4971617;28;20399;-80
2023/07/27 10:01:05;;;;;;;6.40;1.05;;;21.80;95.20;;;;;;4971244;28;20015;-79
2023/07/27 10:03:31;;;;;;;1.92;1.15;;;22.00;95.20;;;;;;4970873;28;20070;-79
2023/07/27 10:05:59;;;;;;;2.63;1.10;;;22.20;95.10;;;;;;4953578;28;20061;-80
2023/07/27 10:08:25;;;;;;;2.10;1.15;;;22.60;94.70;;;;;;4953264;28;20046;-79
2023/07/27 10:10:55;;;;;;;2.05;1.00;;;22.90;94.80;;;;;;4953486;28;20078;-79
2023/07/27 10:13:23;;;;;;;1.10;0.90;;;23.30;95.00;;;;;;4953668;28;20069;-79
2023/07/27 10:15:51;;;;;;;0.98;0.75;;;23.70;93.70;;;;;;4953760;28;20466;-79
2023/07/27 10:18:23;;;;;;;1.02;0.70;;;23.70;92.40;;;;;;4953400;28;20035;-79
2023/07/27 10:20:50;;;;;;;2.28;1.00;;;23.80;92.40;;;;;;4953161;28;20057;-79
2023/07/27 10:23:18;;;;;;;0.75;0.73;;;24.00;91.30;;;;;;4970256;28;20278;-79
2023/07/27 10:25:52;;;;;;;11.18;1.88;;;24.00;92.10;;;;;;4970969;28;20046;-81
2023/07/27 10:28:36;;;;;;;1.23;0.88;;;23.90;91.70;;;;;;4953076;28;20553;-80
2023/07/27 10:31:19;;;;;;;1.70;1.05;;;24.10;93.60;;;;;;4953373;28;20136;-79
2023/07/27 10:33:49;;;;;;;1.33;0.93;;;24.20;91.80;;;;;;4953103;28;20039;-79
2023/07/27 10:36:15;;;;;;;1.10;1.10;;;24.30;92.00;;;;;;4970692;28;20019;-78
2023/07/27 10:38:52;;;;;;;2.58;0.75;;;24.90;90.50;;;;;;4952900;28;20063;-80
2023/07/27 10:41:20;;;;;;;1.58;0.80;;;25.20;90.10;;;;;;4952986;28;20027;-79
2023/07/27 10:44:07;;;;;;;0.53;0.53;;;25.70;87.90;;;;;;4956408;28;20038;-79
2023/07/27 10:46:37;;;;;;;0.70;0.70;;;25.60;88.60;;;;;;4957318;28;20455;-80
2023/07/27 10:49:10;;;;;;;1.25;0.90;;;25.30;90.00;;;;;;4957140;28;20036;-79
2023/07/27 10:51:36;;;;;;;2.83;1.00;;;25.10;86.90;;;;;;4956839;28;20384;-79
2023/07/27 10:54:01;;;;;;;1.02;1.00;;;24.70;90.00;;;;;;4974465;28;20027;-79
2023/07/27 10:56:27;;;;;;;2.20;1.17;;;25.00;86.70;;;;;;4974592;28;20516;-79
2023/07/27 10:59:00;;;;;;;4.32;1.63;;;24.90;86.20;;;;;;4974010;28;20499;-79
2023/07/27 11:01:28;;;;;;;0.90;0.90;;;25.10;86.30;;;;;;4975692;28;20019;-80
2023/07/27 11:03:57;;;;;;;1.60;0.80;;;25.60;83.60;;;;;;4960493;28;20126;-80
2023/07/27 11:06:27;;;;;;;2.28;0.85;;;26.20;84.80;;;;;;4957617;28;20023;-79
2023/07/27 11:08:53;;;;;;;1.13;1.02;;;26.50;82.70;;;;;;4956591;28;20522;-79
2023/07/27 11:11:20;;;;;;;2.15;0.70;;;26.60;82.60;;;;;;4974216;28;20039;-79
2023/07/27 11:13:46;;;;;;;3.15;1.52;;;26.60;81.10;;;;;;4956546;28;20038;-79
2023/07/27 11:16:13;;;;;;;1.27;1.02;;;27.30;83.70;;;;;;4956497;28;20031;-80
2023/07/27 11:18:41;;;;;;;0.80;0.80;;;27.60;79.60;;;;;;4956606;28;20098;-79
2023/07/27 11:21:11;;;;;;;1.00;0.82;;;27.80;78.30;;;;;;4956410;28;20019;-79
2023/07/27 11:23:46;;;;;;;2.67;1.10;;;28.50;75.40;;;;;;4955899;28;20398;-78
2023/07/27 11:26:13;;;;;;;2.15;1.23;;;28.50;73.50;;;;;;4956420;28;20026;-79
2023/07/27 11:28:39;;;;;;;1.90;1.38;;;28.60;72.80;;;;;;4956209;28;20051;-79
2023/07/27 11:31:08;;;;;;;0.90;0.88;;;27.70;77.80;;;;;;4956486;28;20027;-79
2023/07/27 11:33:35;;;;;;;0.80;0.60;;;27.10;80.10;;;;;;4973678;28;20031;-79
2023/07/27 11:36:01;;;;;;;1.42;1.00;;;26.90;79.20;;;;;;4956216;28;20022;-79
2023/07/27 11:38:27;;;;;;;1.13;0.93;;;27.20;75.90;;;;;;4956095;28;20134;-79
2023/07/27 11:40:57;;;;;;;1.65;1.00;;;27.60;76.10;;;;;;4974037;28;20023;-79
2023/07/27 11:43:25;;;;;;;0.90;0.90;;;27.50;74.60;;;;;;4956096;28;20487;-79
2023/07/27 11:45:56;;;;;;;1.65;0.93;;;27.50;76.80;;;;;;4973692;28;20044;-79
2023/07/27 11:48:28;;;;;;;2.70;0.90;;;27.70;75.40;;;;;;4955941;28;20042;-79
2023/07/27 11:50:58;;;;;;;2.63;1.20;;;27.90;71.90;;;;;;4973481;28;20023;-79
2023/07/27 11:53:26;;;;;;;1.38;1.25;;;28.10;71.80;;;;;;4972991;28;20034;-78
2023/07/27 11:55:52;;;;;;;1.50;0.90;;;28.40;69.80;;;;;;4972592;28;20026;-79
2023/07/27 11:58:19;;;;;;;3.38;0.80;;;28.80;70.50;;;;;;4955609;28;20031;-79
2023/07/27 12:00:50;;;;;;;1.63;1.17;;;28.80;69.90;;;;;;4955847;28;20019;-79
2023/07/27 12:03:16;;;;;;;2.05;0.90;;;28.50;67.80;;;;;;4973393;28;20088;-79
2023/07/27 12:05:42;;;;;;;1.13;1.02;;;27.90;69.20;;;;;;4955927;28;20510;-79
2023/07/27 12:08:08;;;;;;;3.35;1.10;;;27.00;68.90;;;;;;4972658;28;20054;-79
2023/07/27 12:10:34;;;;;;;1.83;1.30;;;26.60;69.10;;;;;;4955388;28;20480;-79
2023/07/27 12:13:05;;;;;;;1.48;1.13;;;26.50;70.30;;;;;;4955334;28;20286;-79
2023/07/27 12:15:33;;;;;;;1.95;1.02;;;26.30;68.60;;;;;;4972878;28;20187;-79
2023/07/27 12:18:01;;;;;;;1.20;1.10;;;26.50;69.30;;;;;;4955298;28;20503;-79
2023/07/27 12:20:29;;;;;;;0.93;0.93;;;27.30;69.30;;;;;;4955412;28;20270;-79
2023/07/27 12:22:55;;;;;;;1.48;1.02;;;27.10;68.70;;;;;;4955018;28;20073;-79
2023/07/27 12:25:21;;;;;;;1.10;1.00;;;26.80;70.20;;;;;;4972300;28;20030;-79
2023/07/27 12:27:47;;;;;;;2.72;1.10;;;26.90;71.30;;;;;;4972292;28;20105;-79
2023/07/27 12:30:13;;;;;;;2.20;0.93;;;26.50;70.60;;;;;;4972269;28;20034;-79
2023/07/27 12:32:39;;;;;;;0.93;0.93;;;26.40;71.80;;;;;;4955127;28;20066;-78
2023/07/27 12:35:05;;;;;;;2.08;1.45;;;27.10;70.80;;;;;;4972244;28;20487;-79
2023/07/27 12:37:31;;;;;;;1.10;1.00;;;27.70;68.60;;;;;;4954803;28;20307;-79
2023/07/27 12:39:57;;;;;;;2.85;1.05;;;27.80;68.20;;;;;;4972411;28;20516;-79
2023/07/27 12:42:23;;;;;;;3.08;0.90;;;27.70;68.00;;;;;;4972488;28;20027;-78
2023/07/27 12:44:49;;;;;;;0.85;0.85;;;27.30;70.10;;;;;;4954437;28;20500;-79